Time;durP1;ratioP1;P1;durP2;ratioP2;P2;SDS_P1;SDS_P2;PMS_P1;PMS_P2;Temp;Humidity;BMP_temperature;BMP_pressure;BME280_temperature;BME280_humidity;BME280_pressure;Samples;Min_cycle;Max_cycle;Signal;HPM_P1;HPM_P2
2023/04/16 00:02:15;;;;;;;44.92;19.50;;;;;;;8.58;97.34;101470.00;5013796;28;20038;-69
2023/04/16 00:04:41;;;;;;;40.20;20.65;;;;;;;8.60;97.60;101469.16;5017811;28;20037;-68
2023/04/16 00:07:06;;;;;;;42.97;20.90;;;;;;;8.60;97.77;101480.34;5022771;28;20371;-68
2023/04/16 00:09:32;;;;;;;47.05;20.08;;;;;;;8.62;97.39;101470.03;5016945;28;20054;-69
2023/04/16 00:11:57;;;;;;;38.28;19.05;;;;;;;8.62;97.65;101472.63;5020735;28;20694;-68
2023/04/16 00:14:23;;;;;;;44.88;22.48;;;;;;;8.62;97.50;101473.47;5017706;28;20117;-69
2023/04/16 00:16:48;;;;;;;46.72;20.15;;;;;;;8.63;97.70;101475.22;5018277;28;20029;-69
2023/04/16 00:19:14;;;;;;;50.58;22.05;;;;;;;8.64;96.94;101470.91;5016565;28;20109;-69
2023/04/16 00:21:39;;;;;;;44.70;21.42;;;;;;;8.64;97.42;101474.34;5033999;28;20175;-68
2023/04/16 00:24:04;;;;;;;35.45;19.67;;;;;;;8.64;97.13;101469.19;5020723;28;20525;-68
2023/04/16 00:26:30;;;;;;;36.67;17.52;;;;;;;8.65;96.88;101465.78;5021143;28;20049;-68
2023/04/16 00:28:55;;;;;;;28.95;15.70;;;;;;;8.67;96.49;101481.25;5017418;28;20033;-69
2023/04/16 00:31:31;;;;;;;36.30;18.65;;;;;;;8.69;95.98;101471.84;5023254;28;20036;-67
2023/04/16 00:33:57;;;;;;;30.25;16.45;;;;;;;8.68;96.84;101472.69;4999020;28;20131;-69
2023/04/16 00:36:24;;;;;;;36.35;16.92;;;;;;;8.70;96.69;101476.13;5014178;28;20650;-68
2023/04/16 00:38:50;;;;;;;33.83;17.40;;;;;;;8.69;96.20;101477.88;5020056;28;20076;-67
2023/04/16 00:41:15;;;;;;;30.88;17.33;;;;;;;8.71;95.90;101480.44;5023598;28;20083;-68
2023/04/16 00:43:41;;;;;;;33.58;16.92;;;;;;;8.71;95.78;101473.59;5019389;28;20391;-68
2023/04/16 00:46:06;;;;;;;31.63;15.60;;;;;;;8.71;95.82;101467.56;5020061;28;20094;-68
2023/04/16 00:48:33;;;;;;;31.70;15.50;;;;;;;8.72;95.44;101477.03;5008990;28;20057;-68
2023/04/16 00:51:00;;;;;;;36.30;16.75;;;;;;;8.72;95.41;101470.16;5017603;28;20045;-69
2023/04/16 00:53:26;;;;;;;31.55;16.08;;;;;;;8.73;95.65;101481.31;5017820;28;20041;-68
2023/04/16 00:55:52;;;;;;;32.03;15.70;;;;;;;8.73;95.65;101482.19;5009345;28;20033;-69
2023/04/16 00:58:17;;;;;;;30.98;15.88;;;;;;;8.74;95.42;101476.19;5020638;28;20025;-68
2023/04/16 01:00:43;;;;;;;31.58;16.35;;;;;;;8.75;95.58;101471.91;5020741;28;20565;-68
2023/04/16 01:03:09;;;;;;;37.40;17.73;;;;;;;8.73;95.56;101476.16;5018920;28;20619;-68
2023/04/16 01:05:35;;;;;;;41.22;18.50;;;;;;;8.73;95.29;101473.56;5019523;28;20160;-67
2023/04/16 01:08:01;;;;;;;39.63;17.80;;;;;;;8.70;95.49;101484.72;5022707;28;20389;-67
2023/04/16 01:10:26;;;;;;;36.67;19.55;;;;;;;8.69;95.29;101485.59;5016779;28;20048;-67
2023/04/16 01:12:51;;;;;;;46.78;22.00;;;;;;;8.69;95.61;101480.44;5011652;28;20042;-67
2023/04/16 01:15:17;;;;;;;46.55;19.70;;;;;;;8.70;96.15;101491.59;5019276;28;20045;-67
2023/04/16 01:17:44;;;;;;;33.97;16.23;;;;;;;8.71;95.89;101481.31;5019391;28;20052;-69
2023/04/16 01:20:10;;;;;;;32.55;15.77;;;;;;;8.70;96.41;101487.31;5019711;28;20034;-68
2023/04/16 01:22:36;;;;;;;39.65;18.42;;;;;;;8.69;96.70;101484.72;5019903;28;20102;-68
2023/04/16 01:25:01;;;;;;;37.40;16.38;;;;;;;8.68;96.94;101485.56;5024723;28;20714;-67
2023/04/16 01:27:27;;;;;;;34.20;15.80;;;;;;;8.65;96.58;101499.28;5013861;28;20033;-68
2023/04/16 01:29:52;;;;;;;31.63;16.17;;;;;;;8.63;96.72;101492.38;5012995;28;20085;-68
2023/04/16 01:32:17;;;;;;;37.17;16.50;;;;;;;8.61;96.87;101494.94;5025014;28;20117;-68
2023/04/16 01:34:43;;;;;;;39.08;16.13;;;;;;;8.62;97.43;101493.22;5015039;28;20116;-69
2023/04/16 01:37:08;;;;;;;46.15;18.67;;;;;;;8.62;96.63;101501.81;5015613;28;20161;-69
2023/04/16 01:39:33;;;;;;;43.92;19.67;;;;;;;8.63;96.76;101500.13;5016515;28;20046;-69
2023/04/16 01:41:59;;;;;;;53.90;22.92;;;;;;;8.62;96.83;101490.66;5017287;28;20410;-68
2023/04/16 01:44:25;;;;;;;48.83;22.23;;;;;;;8.63;97.20;101501.00;5015517;28;20045;-68
2023/04/16 01:46:50;;;;;;;48.67;24.80;;;;;;;8.61;96.84;101501.78;5014832;28;20033;-68
2023/04/16 01:49:16;;;;;;;50.92;22.88;;;;;;;8.64;97.80;101502.69;5013931;28;20839;-69
2023/04/16 01:51:41;;;;;;;44.25;21.08;;;;;;;8.63;97.28;101501.00;5015228;28;20144;-69
2023/04/16 01:54:07;;;;;;;40.95;18.73;;;;;;;8.59;97.71;101501.78;5016628;28;20064;-68
2023/04/16 01:56:32;;;;;;;38.17;19.40;;;;;;;8.60;97.56;101515.53;5018479;28;20055;-70
2023/04/16 01:58:57;;;;;;;41.45;17.20;;;;;;;8.57;97.64;101504.34;5019344;28;20025;-69
2023/04/16 02:01:23;;;;;;;34.85;16.35;;;;;;;8.56;98.36;101499.19;5016590;28;20827;-68
2023/04/16 02:03:50;;;;;;;40.45;19.30;;;;;;;8.55;98.07;101512.91;5028421;28;20044;-69
2023/04/16 02:06:15;;;;;;;38.53;18.02;;;;;;;8.56;98.59;101512.06;5012893;28;20029;-70
2023/04/16 02:08:40;;;;;;;44.67;19.38;;;;;;;8.55;98.79;101508.63;5009681;28;20055;-69
2023/04/16 02:11:06;;;;;;;39.30;18.23;;;;;;;8.55;98.55;101508.63;5017836;28;20033;-69
2023/04/16 02:13:31;;;;;;;37.72;19.90;;;;;;;8.56;99.23;101507.78;5020423;28;20029;-69
2023/04/16 02:15:57;;;;;;;35.72;18.38;;;;;;;8.57;98.79;101499.19;5016615;28;20049;-69
2023/04/16 02:18:22;;;;;;;43.47;19.42;;;;;;;8.60;98.84;101507.81;5023266;28;20509;-70
2023/04/16 02:20:48;;;;;;;43.53;19.83;;;;;;;8.58;98.74;101497.47;5019265;28;20038;-69
2023/04/16 02:23:14;;;;;;;37.67;20.73;;;;;;;8.58;98.61;101500.06;5027701;28;20814;-69
2023/04/16 02:25:41;;;;;;;43.65;20.52;;;;;;;8.58;98.92;101500.06;5019642;28;20033;-69
2023/04/16 02:28:16;;;;;;;44.30;21.08;;;;;;;8.59;98.82;101501.78;4995481;28;20029;-69
2023/04/16 02:30:42;;;;;;;38.33;18.83;;;;;;;8.58;98.98;101500.06;5014798;28;20041;-68
2023/04/16 02:33:09;;;;;;;36.47;19.20;;;;;;;8.57;99.43;101503.50;5029396;28;20592;-69
2023/04/16 02:35:35;;;;;;;36.63;18.55;;;;;;;8.55;99.32;101500.88;5022072;28;20049;-70
2023/04/16 02:38:03;;;;;;;38.40;18.67;;;;;;;8.54;99.59;101491.41;5023464;28;20464;-69
2023/04/16 02:40:28;;;;;;;42.00;19.92;;;;;;;8.55;100.00;101493.16;5021613;28;20060;-69
2023/04/16 02:42:54;;;;;;;43.25;21.50;;;;;;;8.55;100.00;101500.88;5023535;28;20634;-69
2023/04/16 02:45:20;;;;;;;40.80;20.60;;;;;;;8.53;100.00;101494.00;5006379;28;20495;-68
2023/04/16 02:47:46;;;;;;;49.13;23.77;;;;;;;8.52;100.00;101498.28;5021229;28;20440;-69
2023/04/16 02:50:12;;;;;;;43.83;22.88;;;;;;;8.49;100.00;101495.66;5016407;28;20059;-69
2023/04/16 02:52:37;;;;;;;47.90;23.52;;;;;;;8.50;100.00;101496.53;5018856;28;20662;-69
2023/04/16 02:55:03;;;;;;;48.65;23.33;;;;;;;8.51;100.00;101496.56;5025316;28;20038;-69
2023/04/16 02:57:28;;;;;;;53.03;26.17;;;;;;;8.53;100.00;101501.72;5014961;28;20120;-69
2023/04/16 02:59:54;;;;;;;55.92;25.55;;;;;;;8.53;100.00;101504.31;5014349;28;20049;-69
2023/04/16 03:02:19;;;;;;;48.95;24.48;;;;;;;8.54;100.00;101500.88;5009467;28;20120;-70
2023/04/16 03:04:45;;;;;;;47.45;23.98;;;;;;;8.54;99.96;101503.47;5012873;28;20033;-67
2023/04/16 03:07:11;;;;;;;46.63;23.80;;;;;;;8.53;100.00;101500.00;5021031;28;20061;-69
2023/04/16 03:09:37;;;;;;;47.83;24.98;;;;;;;8.55;100.00;101500.88;5017455;28;20068;-68
2023/04/16 03:12:03;;;;;;;52.88;25.17;;;;;;;8.55;100.00;101503.47;5017693;28;20123;-69
2023/04/16 03:14:29;;;;;;;49.72;21.20;;;;;;;8.57;100.00;101495.78;5008826;28;20050;-69
2023/04/16 03:16:54;;;;;;;43.47;21.25;;;;;;;8.57;99.58;101494.03;5019975;28;20044;-69
2023/04/16 03:19:20;;;;;;;42.83;19.77;;;;;;;8.58;100.00;101502.63;5021399;28;20044;-69
2023/04/16 03:21:45;;;;;;;44.47;21.30;;;;;;;8.59;100.00;101496.63;5018012;28;20048;-70
2023/04/16 03:24:10;;;;;;;50.28;22.85;;;;;;;8.56;99.49;101496.59;5015677;28;20576;-70
2023/04/16 03:26:36;;;;;;;49.10;24.10;;;;;;;8.58;99.70;101494.91;5021139;28;20029;-70
2023/04/16 03:29:01;;;;;;;52.03;23.88;;;;;;;8.59;99.65;101501.78;5018973;28;20045;-70
2023/04/16 03:31:27;;;;;;;47.65;24.35;;;;;;;8.59;99.47;101509.53;5019989;28;20037;-69
2023/04/16 03:33:52;;;;;;;51.50;23.40;;;;;;;8.59;99.53;101501.78;5030095;28;20037;-69
2023/04/16 03:36:18;;;;;;;52.55;23.48;;;;;;;8.60;99.00;101500.97;5024205;28;20044;-69
2023/04/16 03:38:43;;;;;;;48.10;22.67;;;;;;;8.61;99.14;101512.97;5019696;28;20412;-69
2023/04/16 03:41:09;;;;;;;48.75;24.70;;;;;;;8.60;99.44;101519.00;5018319;28;20045;-68
2023/04/16 03:43:34;;;;;;;48.00;21.88;;;;;;;8.61;99.57;101505.25;5021387;28;20761;-69
2023/04/16 03:46:00;;;;;;;53.90;23.52;;;;;;;8.63;99.47;101520.75;5022004;28;20726;-69
2023/04/16 03:48:25;;;;;;;49.90;22.98;;;;;;;8.62;99.13;101512.13;5031490;28;20061;-70
2023/04/16 03:50:50;;;;;;;48.53;23.15;;;;;;;8.62;99.46;101513.84;5019769;28;20037;-69
2023/04/16 03:53:16;;;;;;;47.70;22.95;;;;;;;8.61;98.78;101518.13;5016080;28;20061;-69
2023/04/16 03:55:42;;;;;;;43.50;21.92;;;;;;;8.63;99.74;101518.16;5021690;28;20040;-69
2023/04/16 03:58:07;;;;;;;50.05;22.00;;;;;;;8.61;99.93;101520.69;5024765;28;20468;-69
2023/04/16 04:00:33;;;;;;;44.70;20.45;;;;;;;8.57;99.48;101519.78;5021270;28;20087;-69
2023/04/16 04:02:58;;;;;;;44.95;23.20;;;;;;;8.56;99.50;101515.50;5021513;28;20056;-68
2023/04/16 04:05:23;;;;;;;51.90;22.83;;;;;;;8.56;99.84;101525.81;5021172;28;20052;-71
2023/04/16 04:07:49;;;;;;;42.60;22.27;;;;;;;8.56;99.92;101530.09;5022421;28;20783;-71
2023/04/16 04:10:15;;;;;;;50.95;23.25;;;;;;;8.54;100.00;101524.91;5028462;28;20041;-70
2023/04/16 04:12:41;;;;;;;55.83;25.38;;;;;;;8.53;100.00;101527.50;5023675;28;20049;-68
2023/04/16 04:15:07;;;;;;;53.08;24.92;;;;;;;8.54;100.00;101531.81;5022048;28;20076;-69
2023/04/16 04:17:32;;;;;;;55.75;25.27;;;;;;;8.53;100.00;101522.34;5027762;28;20038;-69
2023/04/16 04:19:58;;;;;;;59.33;25.27;;;;;;;8.53;100.00;101540.38;5023651;28;20509;-69
2023/04/16 04:22:23;;;;;;;48.38;24.50;;;;;;;8.51;100.00;101527.47;5027915;28;20290;-70
2023/04/16 04:24:48;;;;;;;57.53;24.83;;;;;;;8.51;100.00;101532.63;5023046;28;20030;-68
2023/04/16 04:27:14;;;;;;;60.92;27.42;;;;;;;8.53;100.00;101541.25;5023098;28;20033;-68
2023/04/16 04:29:39;;;;;;;57.13;26.23;;;;;;;8.52;100.00;101544.66;5013166;28;20710;-68
2023/04/16 04:32:05;;;;;;;58.85;25.27;;;;;;;8.52;100.00;101547.22;5017744;28;20033;-69
2023/04/16 04:34:30;;;;;;;50.78;23.25;;;;;;;8.53;100.00;101554.13;5017245;28;20130;-70
2023/04/16 04:36:55;;;;;;;55.53;25.48;;;;;;;8.53;100.00;101550.69;5020078;28;20126;-67
2023/04/16 04:39:21;;;;;;;58.33;25.52;;;;;;;8.53;100.00;101550.69;5014384;28;20115;-67
2023/04/16 04:41:47;;;;;;;56.22;25.45;;;;;;;8.52;100.00;101551.50;5017887;28;20061;-68
2023/04/16 04:44:12;;;;;;;56.22;25.02;;;;;;;8.54;100.00;101553.25;5014307;28;20026;-68
2023/04/16 04:46:39;;;;;;;61.50;26.50;;;;;;;8.55;100.00;101554.13;5020899;28;20037;-66
2023/04/16 04:49:05;;;;;;;69.07;28.98;;;;;;;8.54;100.00;101555.00;5021929;28;20115;-68
2023/04/16 04:51:31;;;;;;;69.10;28.95;;;;;;;8.54;100.00;101548.09;5012449;28;20033;-68
2023/04/16 04:53:57;;;;;;;78.15;29.38;;;;;;;8.54;100.00;101545.53;5016868;28;20025;-69
2023/04/16 04:56:22;;;;;;;72.72;29.77;;;;;;;8.55;100.00;101557.56;5016688;28;20030;-68
2023/04/16 04:58:49;;;;;;;68.82;29.77;;;;;;;8.55;100.00;101548.97;5005172;28;20033;-68
2023/04/16 05:01:15;;;;;;;75.45;30.60;;;;;;;8.57;100.00;101555.88;5022256;28;20393;-68
2023/04/16 05:03:40;;;;;;;71.85;28.65;;;;;;;8.58;100.00;101555.03;5026280;28;20044;-66
2023/04/16 05:06:06;;;;;;;71.82;30.35;;;;;;;8.60;100.00;101544.75;5017880;28;20045;-67
2023/04/16 05:08:31;;;;;;;68.00;29.00;;;;;;;8.61;100.00;101555.91;5018324;28;20805;-68
2023/04/16 05:10:57;;;;;;;75.38;30.60;;;;;;;8.63;100.00;101555.09;5020049;28;20649;-69
2023/04/16 05:13:22;;;;;;;66.68;29.77;;;;;;;8.65;100.00;101555.09;5015990;28;20029;-68
2023/04/16 05:15:47;;;;;;;65.50;28.45;;;;;;;8.68;100.00;101568.91;5016225;28;20037;-69
2023/04/16 05:18:13;;;;;;;69.03;29.75;;;;;;;8.68;100.00;101557.72;5018160;28;20168;-69
2023/04/16 05:20:38;;;;;;;68.97;30.63;;;;;;;8.71;100.00;101557.75;5015346;28;20121;-68
2023/04/16 05:23:03;;;;;;;67.75;28.85;;;;;;;8.71;100.00;101563.78;5018749;28;20045;-67
2023/04/16 05:25:29;;;;;;;84.57;31.17;;;;;;;8.72;100.00;101562.94;5020436;28;20053;-68
2023/04/16 05:27:54;;;;;;;64.70;27.65;;;;;;;8.76;100.00;101568.97;5019231;28;20049;-68
2023/04/16 05:30:20;;;;;;;69.15;28.98;;;;;;;8.77;100.00;101571.59;5010070;28;20038;-68
2023/04/16 05:32:45;;;;;;;68.55;29.45;;;;;;;8.79;100.00;101572.47;5017260;28;20789;-68
2023/04/16 05:35:10;;;;;;;70.63;28.25;;;;;;;8.79;100.00;101579.31;5017372;28;20670;-68
2023/04/16 05:37:36;;;;;;;75.03;31.05;;;;;;;8.81;100.00;101578.50;5019372;28;20037;-69
2023/04/16 05:40:01;;;;;;;72.32;29.95;;;;;;;8.79;100.00;101585.34;5017525;28;20041;-68
2023/04/16 05:42:26;;;;;;;74.05;30.63;;;;;;;8.80;100.00;101581.94;5020741;28;20032;-70
2023/04/16 05:44:52;;;;;;;80.85;32.13;;;;;;;8.82;100.00;101594.84;5018451;28;20022;-69
2023/04/16 05:47:17;;;;;;;77.00;31.30;;;;;;;8.85;100.00;101588.00;5012840;28;20046;-68
2023/04/16 05:49:43;;;;;;;68.72;29.52;;;;;;;8.88;100.00;101587.16;5013552;28;20036;-68
2023/04/16 05:52:08;;;;;;;79.18;30.63;;;;;;;8.89;100.00;101592.34;5017187;28;20033;-69
2023/04/16 05:54:34;;;;;;;70.72;30.08;;;;;;;8.92;100.00;101597.56;5015853;28;20046;-69
2023/04/16 05:57:00;;;;;;;69.28;30.25;;;;;;;8.92;100.00;101592.41;5020821;28;20033;-70
2023/04/16 05:59:26;;;;;;;74.40;30.25;;;;;;;8.92;100.00;101597.56;5015650;28;20142;-69
2023/04/16 06:01:51;;;;;;;73.28;29.90;;;;;;;8.95;100.00;101600.16;5016864;28;20606;-68
2023/04/16 06:04:16;;;;;;;70.80;29.65;;;;;;;8.98;99.71;101601.91;5015594;28;20022;-69
2023/04/16 06:06:42;;;;;;;67.00;31.15;;;;;;;9.00;99.67;101602.78;5013040;28;20103;-69
2023/04/16 06:09:07;;;;;;;57.33;27.30;;;;;;;9.01;99.80;101597.66;5013345;28;20094;-69
2023/04/16 06:11:33;;;;;;;70.38;30.00;;;;;;;9.03;99.28;101606.28;5018152;28;20094;-70
2023/04/16 06:13:58;;;;;;;71.15;28.65;;;;;;;9.03;99.85;101601.13;5020233;28;20034;-69
2023/04/16 06:16:23;;;;;;;67.18;29.05;;;;;;;9.05;99.62;101607.13;5017493;28;20041;-69
2023/04/16 06:18:49;;;;;;;69.88;29.33;;;;;;;9.05;99.76;101601.97;5016707;28;20034;-69
2023/04/16 06:21:15;;;;;;;68.70;29.55;;;;;;;9.07;100.00;101602.00;5009522;28;20060;-69
2023/04/16 06:23:40;;;;;;;61.75;28.48;;;;;;;9.07;99.99;101595.16;5012409;28;20084;-69
2023/04/16 06:26:06;;;;;;;61.78;27.85;;;;;;;9.11;100.00;101596.88;5010834;28;20056;-70
2023/04/16 06:28:31;;;;;;;55.35;25.90;;;;;;;9.13;99.70;101599.50;5015609;28;20034;-69
2023/04/16 06:30:56;;;;;;;54.83;25.50;;;;;;;9.14;99.68;101598.63;5014402;28;20060;-68
2023/04/16 06:33:22;;;;;;;53.75;26.77;;;;;;;9.16;99.96;101612.44;5015514;28;20041;-69
2023/04/16 06:35:47;;;;;;;61.28;25.85;;;;;;;9.18;99.73;101608.16;5019609;28;20037;-68
2023/04/16 06:38:13;;;;;;;64.53;26.77;;;;;;;9.18;99.77;101618.47;5018800;28;20033;-69
2023/04/16 06:40:39;;;;;;;60.92;25.00;;;;;;;9.15;99.55;101618.44;5018915;28;20029;-69
2023/04/16 06:43:04;;;;;;;62.22;25.70;;;;;;;9.14;100.00;101624.44;5020380;28;21197;-69
2023/04/16 06:45:30;;;;;;;53.33;23.98;;;;;;;9.12;100.00;101619.25;5023636;28;20073;-67
2023/04/16 06:47:57;;;;;;;59.45;26.00;;;;;;;9.10;100.00;101625.25;5016969;28;20069;-67
2023/04/16 06:50:23;;;;;;;60.33;25.15;;;;;;;9.09;100.00;101626.97;5012754;28;20049;-69
2023/04/16 06:52:49;;;;;;;56.63;25.42;;;;;;;9.09;100.00;101636.41;5017036;28;21032;-66
2023/04/16 06:55:14;;;;;;;60.17;24.48;;;;;;;9.09;100.00;101628.69;5022408;28;20033;-68
2023/04/16 06:57:40;;;;;;;51.63;24.67;;;;;;;9.11;100.00;101634.72;5018620;28;20683;-69
2023/04/16 07:00:06;;;;;;;54.40;25.23;;;;;;;9.10;100.00;101644.19;5023922;28;20033;-67
2023/04/16 07:02:31;;;;;;;60.22;24.70;;;;;;;9.10;100.00;101636.44;5021549;28;20040;-67
2023/04/16 07:04:57;;;;;;;56.47;25.48;;;;;;;9.09;100.00;101636.41;5022296;28;20030;-67
2023/04/16 07:07:22;;;;;;;49.70;25.15;;;;;;;9.10;100.00;101639.03;5039926;28;20108;-67
2023/04/16 07:09:47;;;;;;;51.33;24.08;;;;;;;9.13;100.00;101627.88;5022748;28;20029;-67
2023/04/16 07:12:13;;;;;;;47.85;24.92;;;;;;;9.12;100.00;101636.44;5021259;28;20038;-67
2023/04/16 07:14:38;;;;;;;43.80;21.77;;;;;;;9.12;100.00;101637.31;5020292;28;20068;-67
2023/04/16 07:17:04;;;;;;;45.58;20.70;;;;;;;9.14;100.00;101652.78;5016106;28;20630;-68
2023/04/16 07:19:31;;;;;;;38.75;20.00;;;;;;;9.15;100.00;101641.66;5021337;28;20148;-68
2023/04/16 07:21:58;;;;;;;37.42;19.42;;;;;;;9.14;100.00;101640.78;5015963;28;20113;-67
2023/04/16 07:24:23;;;;;;;39.75;20.95;;;;;;;9.17;100.00;101650.25;5015336;28;20033;-67
2023/04/16 07:26:49;;;;;;;39.17;20.23;;;;;;;9.21;100.00;101651.16;5023786;28;20029;-68
2023/04/16 07:29:14;;;;;;;42.05;20.83;;;;;;;9.25;100.00;101658.09;5017773;28;20493;-68
2023/04/16 07:31:40;;;;;;;37.33;20.17;;;;;;;9.27;100.00;101652.09;5017877;28;20143;-68
2023/04/16 07:34:05;;;;;;;42.45;21.75;;;;;;;9.29;99.41;101658.13;5015879;28;20104;-68
2023/04/16 07:36:31;;;;;;;47.47;23.98;;;;;;;9.31;99.44;101661.63;5019085;28;20033;-68
2023/04/16 07:38:56;;;;;;;45.25;22.98;;;;;;;9.35;99.50;101659.91;5027879;28;20393;-67
2023/04/16 07:41:22;;;;;;;50.67;22.83;;;;;;;9.36;98.56;101661.66;5022152;28;20033;-68
2023/04/16 07:43:48;;;;;;;53.85;24.67;;;;;;;9.36;98.34;101667.69;5025289;28;20056;-70
2023/04/16 07:46:13;;;;;;;52.47;24.35;;;;;;;9.37;99.01;101676.28;5021522;28;20516;-69
2023/04/16 07:48:38;;;;;;;52.63;23.90;;;;;;;9.36;98.63;101667.69;5015450;28;20044;-68
2023/04/16 07:51:04;;;;;;;42.88;22.77;;;;;;;9.37;99.25;101672.00;5020812;28;20072;-68
2023/04/16 07:53:29;;;;;;;48.28;22.88;;;;;;;9.40;98.66;101674.63;5028584;28;20171;-68
2023/04/16 07:55:55;;;;;;;46.72;22.10;;;;;;;9.42;98.99;101675.50;5014867;28;20033;-69
2023/04/16 07:58:20;;;;;;;42.15;20.77;;;;;;;9.42;99.42;101672.91;5015476;28;20037;-67
2023/04/16 08:00:46;;;;;;;40.58;21.42;;;;;;;9.45;98.57;101675.53;5017250;28;20045;-69
2023/04/16 08:03:11;;;;;;;43.00;19.77;;;;;;;9.47;98.43;101684.13;5017506;28;20030;-68
2023/04/16 08:05:36;;;;;;;41.50;21.75;;;;;;;9.49;98.73;101684.16;5018245;28;20144;-69
2023/04/16 08:08:02;;;;;;;43.50;22.02;;;;;;;9.52;98.90;101684.19;5024436;28;20045;-68
2023/04/16 08:10:27;;;;;;;47.97;23.20;;;;;;;9.55;99.37;101684.25;5024547;28;20029;-68
2023/04/16 08:12:53;;;;;;;45.38;23.13;;;;;;;9.57;99.12;101687.69;5018912;28;20041;-68
2023/04/16 08:15:18;;;;;;;42.38;21.75;;;;;;;9.60;98.32;101685.16;5018939;28;20038;-68
2023/04/16 08:17:44;;;;;;;42.53;21.73;;;;;;;9.64;97.91;101684.38;5018049;28;20041;-69
2023/04/16 08:20:10;;;;;;;41.78;21.23;;;;;;;9.67;97.21;101692.13;5019969;28;20037;-69
2023/04/16 08:22:35;;;;;;;40.75;22.42;;;;;;;9.75;97.23;101699.94;5018282;28;20044;-68
2023/04/16 08:25:02;;;;;;;42.53;20.88;;;;;;;9.76;97.47;101697.41;5018942;28;20033;-68
2023/04/16 08:27:27;;;;;;;40.08;20.67;;;;;;;9.80;97.21;101703.44;5036434;28;20084;-68
2023/04/16 08:29:53;;;;;;;48.92;23.85;;;;;;;9.84;97.73;101700.03;5021409;28;20784;-68
2023/04/16 08:32:18;;;;;;;43.17;21.55;;;;;;;9.84;97.07;101705.19;5020499;28;20080;-67
2023/04/16 08:34:44;;;;;;;43.22;22.45;;;;;;;9.80;96.56;101706.88;5014297;28;20124;-69
2023/04/16 08:37:09;;;;;;;50.72;24.30;;;;;;;9.86;96.69;101712.09;5018344;28;20108;-69
2023/04/16 08:39:34;;;;;;;46.72;22.75;;;;;;;9.90;96.20;101711.28;5019182;28;20037;-70
2023/04/16 08:42:03;;;;;;;48.17;23.98;;;;;;;10.09;96.11;101709.72;5021510;28;20532;-69
2023/04/16 08:44:33;;;;;;;45.47;24.00;;;;;;;10.38;93.91;101705.69;5019107;28;20041;-70
2023/04/16 08:47:00;;;;;;;42.83;23.05;;;;;;;10.69;91.84;101704.16;5017363;28;20732;-69
2023/04/16 08:49:27;;;;;;;44.92;23.67;;;;;;;10.89;88.00;101709.44;5018580;28;20112;-68
2023/04/16 08:51:54;;;;;;;42.90;23.08;;;;;;;10.89;87.61;101714.63;5011700;28;20052;-69
2023/04/16 08:54:45;;;;;;;40.22;22.67;;;;;;;10.91;87.31;101710.31;5014228;28;20041;-69
2023/04/16 08:57:12;;;;;;;35.40;20.98;;;;;;;10.93;86.97;101712.03;5011763;28;20562;-68
2023/04/16 08:59:39;;;;;;;42.28;21.23;;;;;;;10.93;86.42;101716.34;5012611;28;20049;-69
2023/04/16 09:02:05;;;;;;;43.05;22.10;;;;;;;10.94;85.91;101712.91;5011968;28;20136;-69
2023/04/16 09:04:31;;;;;;;34.70;20.67;;;;;;;10.88;86.02;101718.94;5016746;28;20536;-69
2023/04/16 09:06:58;;;;;;;37.10;21.95;;;;;;;10.92;86.63;101714.63;5016580;28;20179;-68
2023/04/16 09:09:25;;;;;;;34.75;21.17;;;;;;;10.90;86.15;101721.50;5014591;28;20037;-68
2023/04/16 09:11:51;;;;;;;37.60;22.48;;;;;;;10.89;85.37;101717.22;5007247;28;20157;-68
2023/04/16 09:14:17;;;;;;;38.90;23.08;;;;;;;10.87;86.32;101719.78;5006767;28;20053;-68
2023/04/16 09:16:44;;;;;;;44.00;23.33;;;;;;;10.86;86.05;101720.63;5011998;28;20037;-68
2023/04/16 09:19:10;;;;;;;37.25;21.70;;;;;;;10.90;85.96;101730.13;5009530;28;20129;-69
2023/04/16 09:21:36;;;;;;;40.13;23.00;;;;;;;10.88;85.78;101729.28;5011733;28;20038;-68
2023/04/16 09:24:02;;;;;;;36.92;21.40;;;;;;;10.97;85.76;101726.75;5010920;28;20203;-69
2023/04/16 09:26:28;;;;;;;36.67;21.52;;;;;;;11.05;86.01;101732.81;5015380;28;20053;-69
2023/04/16 09:28:54;;;;;;;41.03;23.00;;;;;;;11.15;85.85;101732.00;5012072;28;20037;-69
2023/04/16 09:31:19;;;;;;;41.22;23.58;;;;;;;11.16;84.86;101731.13;5014980;28;20026;-69
2023/04/16 09:34:05;;;;;;;42.22;24.70;;;;;;;11.15;84.92;101737.19;5013252;28;20502;-69
2023/04/16 09:36:31;;;;;;;40.55;23.48;;;;;;;11.26;84.00;101727.72;5011344;28;20808;-69
2023/04/16 09:38:58;;;;;;;40.15;22.77;;;;;;;11.42;82.88;101732.97;5015432;28;20048;-69
2023/04/16 09:41:28;;;;;;;39.38;21.90;;;;;;;11.57;82.34;101731.34;5011888;28;20045;-69
2023/04/16 09:43:56;;;;;;;38.17;22.52;;;;;;;11.57;80.08;101731.34;5012711;28;20040;-69
2023/04/16 09:46:23;;;;;;;39.20;22.30;;;;;;;11.77;79.07;101729.66;5010484;28;20033;-69
2023/04/16 09:48:48;;;;;;;36.78;21.63;;;;;;;11.93;78.27;101724.50;5014081;28;20029;-68
2023/04/16 09:51:14;;;;;;;34.83;21.55;;;;;;;11.77;77.45;101731.38;5013483;28;20045;-69
2023/04/16 09:53:39;;;;;;;33.50;20.25;;;;;;;11.81;77.57;101738.31;5019906;28;20530;-69
2023/04/16 09:56:05;;;;;;;34.42;18.75;;;;;;;11.98;77.43;101735.72;5022350;28;20042;-68
2023/04/16 09:58:32;;;;;;;34.42;20.08;;;;;;;12.16;76.45;101727.97;5022188;28;20033;-69
2023/04/16 10:01:06;;;;;;;39.20;21.95;;;;;;;12.20;75.92;101729.69;5018829;28;20494;-69
2023/04/16 10:03:33;;;;;;;38.30;21.83;;;;;;;12.17;75.66;101733.16;5013409;28;20048;-69
2023/04/16 10:06:13;;;;;;;43.03;22.58;;;;;;;12.19;76.17;101735.75;5018673;28;20068;-69
2023/04/16 10:08:57;;;;;;;38.47;21.70;;;;;;;12.20;75.48;101722.78;5021953;28;20045;-69
2023/04/16 10:11:23;;;;;;;36.13;20.15;;;;;;;12.21;75.10;101726.25;5016994;28;20034;-69
2023/04/16 10:13:49;;;;;;;35.90;21.00;;;;;;;12.13;75.99;101743.53;5016099;28;20513;-69
2023/04/16 10:16:15;;;;;;;38.17;21.75;;;;;;;12.07;76.94;101754.75;5008595;28;20044;-68
2023/04/16 10:18:42;;;;;;;43.50;24.33;;;;;;;12.04;78.29;101753.88;5009474;28;20049;-69
2023/04/16 10:21:10;;;;;;;39.00;24.15;;;;;;;11.95;78.82;101751.28;5010099;28;20467;-69
2023/04/16 10:23:38;;;;;;;38.42;22.60;;;;;;;11.80;78.03;101746.94;5017520;28;20645;-69
2023/04/16 10:26:04;;;;;;;34.60;22.15;;;;;;;11.71;78.20;101754.66;5009717;28;20125;-69
2023/04/16 10:28:30;;;;;;;42.53;24.50;;;;;;;11.71;78.34;101749.50;5018689;28;20044;-69
2023/04/16 10:30:59;;;;;;;43.38;25.85;;;;;;;11.72;78.46;101756.41;5023223;28;20064;-69
2023/04/16 10:33:29;;;;;;;41.05;25.55;;;;;;;11.84;78.89;101757.28;5015966;28;20120;-69
2023/04/16 10:36:06;;;;;;;37.83;24.23;;;;;;;11.99;78.09;101755.63;5005609;28;20069;-68
2023/04/16 10:38:32;;;;;;;40.50;25.45;;;;;;;12.06;78.02;101758.19;5020606;28;20049;-69
2023/04/16 10:41:00;;;;;;;45.42;27.25;;;;;;;12.07;77.71;101754.75;5019426;28;20033;-69
2023/04/16 10:43:27;;;;;;;42.92;25.67;;;;;;;12.20;77.37;101756.47;5013908;28;20059;-69
2023/04/16 10:45:52;;;;;;;41.63;25.20;;;;;;;12.40;76.20;101739.22;5012559;28;20079;-69
2023/04/16 10:48:18;;;;;;;47.05;27.15;;;;;;;12.65;75.37;101729.66;5011259;28;20411;-69
2023/04/16 10:50:56;;;;;;;42.78;25.55;;;;;;;12.80;74.50;101724.47;5012631;28;20048;-69
2023/04/16 10:53:25;;;;;;;51.65;29.45;;;;;;;12.66;74.33;101725.34;5009191;28;20107;-67
2023/04/16 10:56:03;;;;;;;48.30;29.67;;;;;;;12.58;74.90;101743.53;5011702;28;20048;-70
2023/04/16 10:58:35;;;;;;;38.95;24.50;;;;;;;12.48;74.70;101738.34;5013321;28;20104;-69
2023/04/16 11:01:05;;;;;;;37.80;23.10;;;;;;;12.40;74.27;101733.16;5005337;28;20037;-68
2023/04/16 11:03:31;;;;;;;35.05;22.08;;;;;;;12.45;73.45;101724.53;5015759;28;20068;-69
2023/04/16 11:06:13;;;;;;;36.17;23.17;;;;;;;12.62;73.84;101728.81;5015840;28;20148;-69
2023/04/16 11:08:40;;;;;;;37.00;24.13;;;;;;;12.73;73.03;101727.91;5009477;28;20130;-69